Have a Safe July 4th! 

Flight Track Log - Related Links

Times and Time Zones

All times are in EDT time to prevent confusion due to time zone crossing. See the SWA720 flight status page for this flight to view local times or setup timezone preferences in your user account.

Time Position Orientation Groundspeed Altitude Reporting Facility
EDT Latitude Longitude Course Direction KTS MPH feet Rate Location/Type
Sat 07:07:47 PM 29.6583 -95.2647 321° Northwest 164 189 800  Level Houston Center
Sat 07:09:01 PM 29.7067 -95.3094 321° Northwest 269 310 3,700 2,338 Climbing Houston Center
Sat 07:10:03 PM 29.7342 -95.3767 295° West 255 293 6,100 2,903 Climbing Houston Center
Sat 07:11:05 PM 29.7586 -95.4608 289° West 275 316 9,700 2,468 Climbing Houston Center
Sat 07:12:07 PM 29.7856 -95.5739 285° West 313 360 11,200 2,146 Climbing Houston Center
Sat 07:13:08 PM 29.8131 -95.6856 286° West 359 413 14,100 2,732 Climbing Houston Center
Sat 07:14:10 PM 29.8389 -95.7964 285° West 360 414 16,800 2,293 Climbing Houston Center
Sat 07:15:11 PM 29.8650 -95.9086 285° West 364 419 18,800 2,098 Climbing Houston Center
Sat 07:16:13 PM 29.8953 -96.0367 285° West 370 426 21,100 1,984 Climbing Houston Center
Sat 07:17:15 PM 29.9233 -96.1511 286° West 373 429 22,900 1,707 Climbing Houston Center
Sat 07:18:16 PM 29.9411 -96.2706 280° West 376 433 24,600 1,610 Climbing Houston Center
Sat 07:19:18 PM 29.9467 -96.3936 273° West 384 442 26,200 1,854 Climbing Houston Center
Sat 07:20:19 PM 29.9528 -96.5122 273° West 376 433 28,400 1,951 Climbing Houston Center
Sat 07:21:21 PM 29.9686 -96.6236 279° West 357 411 30,200 1,645 Climbing Houston Center
Sat 07:22:23 PM 29.9953 -96.7544 283° West 350 403 31,800 1,415 Climbing Houston Center
Sat 07:23:24 PM 30.0189 -96.8622 284° West 349 402 33,100 1,073 Climbing Houston Center
Sat 07:24:26 PM 30.0394 -96.9678 283° West 340 391 34,000 439 Climbing Houston Center
Sat 07:25:27 PM 30.0633 -97.0742 285° West 343 395 34,000  Level Houston Center
Sat 07:26:29 PM 30.0836 -97.1817 282° West 345 397 34,000  Level Houston Center
Sat 07:27:30 PM 30.1078 -97.2933 284° West 345 397 34,000  Level Houston Center
Sat 07:28:32 PM 30.1306 -97.4033 283° West 346 398 34,000  Level Houston Center
Sat 07:29:34 PM 30.1522 -97.5128 283° West 347 399 34,000  Level Houston Center
Sat 07:30:35 PM 30.1747 -97.6219 283° West 344 396 34,000  Level Houston Center
Sat 07:31:37 PM 30.1964 -97.7328 283° West 347 399 34,000  Level Houston Center
Sat 07:32:38 PM 30.2225 -97.8597 283° West 345 397 34,000  Level Houston Center
Sat 07:33:40 PM 30.2442 -97.9719 283° West 343 395 34,000  Level Houston Center
Sat 07:34:41 PM 30.2656 -98.0792 283° West 342 394 34,000  Level Houston Center
Sat 07:35:43 PM 30.2867 -98.1872 283° West 345 397 34,000  Level Houston Center
Sat 07:36:45 PM 30.3097 -98.3019 283° West 343 395 34,000  Level Houston Center
Sat 07:37:46 PM 30.3286 -98.4042 282° West 343 395 34,000  Level Houston Center
Sat 07:38:48 PM 30.3531 -98.5128 285° West 342 394 34,000  Level Houston Center
Sat 07:39:49 PM 30.3775 -98.6200 285° West 343 395 34,000  Level Houston Center
Sat 07:40:51 PM 30.4011 -98.7289 284° West 345 397 34,000  Level Houston Center
Sat 07:41:52 PM 30.4258 -98.8378 285° West 346 398 34,000  Level Houston Center
Sat 07:42:54 PM 30.4492 -98.9461 284° West 344 396 34,000  Level Houston Center
Sat 07:43:55 PM 30.4719 -99.0544 284° West 342 394 34,000  Level Houston Center
Sat 07:44:57 PM 30.4983 -99.1761 284° West 343 395 34,000  Level Houston Center
Sat 07:45:58 PM 30.5225 -99.2825 285° West 342 394 34,000  Level Houston Center
Sat 07:46:59 PM 30.5458 -99.3906 284° West 345 397 34,000  Level Houston Center
Sat 07:48:01 PM 30.5683 -99.4986 284° West 347 399 34,000  Level Houston Center
Sat 07:49:02 PM 30.5914 -99.6050 284° West 343 395 34,000  Level Houston Center
Sat 07:50:04 PM 30.6139 -99.7133 284° West 346 398 34,000  Level Houston Center
Sat 07:51:05 PM 30.6356 -99.8200 283° West 341 392 34,000  Level Houston Center
Sat 07:52:07 PM 30.6631 -99.9486 284° West 344 396 34,000  Level Houston Center
Sat 07:53:08 PM 30.6847 -100.0561 283° West 344 396 34,000  Level Houston Center
Sat 07:54:09 PM 30.7083 -100.1628 284° West 344 396 34,000  Level Houston Center
Sat 07:55:11 PM 30.7292 -100.2686 283° West 341 392 34,000 -49 Level Houston Center
Sat 07:56:12 PM 30.7506 -100.3742 283° West 338 389 33,900  Descending Houston Center
Sat 07:57:13 PM 30.7719 -100.4781 284° West 333 383 34,000 49 Climbing Houston Center
Sat 07:58:15 PM 30.7939 -100.5844 284° West 340 391 34,000  Level Houston Center
Sat 07:59:16 PM 30.8194 -100.7114 283° West 337 388 34,000  Level Houston Center
Sat 08:00:18 PM 30.8411 -100.8164 284° West 337 388 34,000  Level Houston Center
Sat 08:01:19 PM 30.8625 -100.9208 283° West 334 384 34,000 -49 Level Houston Center
Sat 08:02:20 PM 30.8836 -101.0269 283° West 337 388 33,900 -49 Descending Houston Center
Sat 08:03:22 PM 30.9028 -101.1328 282° West 337 388 33,900 49 Level Houston Center
Sat 08:04:23 PM 30.9261 -101.2350 285° West 330 380 34,000 49 Climbing Houston Center
Sat 08:05:25 PM 30.9508 -101.3583 283° West 339 390 34,000  Level Houston Center
Sat 08:06:26 PM 30.9728 -101.4672 283° West 344 396 34,000  Level Houston Center
Sat 08:07:15 PM 30.9869 -101.5531 281° West 341 392 34,000  Level Albuquerque Center
Sat 08:08:17 PM 31.0083 -101.6619 283° West 344 396 34,000  Level Albuquerque Center
Sat 08:09:18 PM 31.0300 -101.7714 283° West 345 397 34,000 -49 Level Albuquerque Center
Sat 08:10:20 PM 31.0506 -101.8808 282° West 345 397 33,900  Descending Albuquerque Center
Sat 08:11:21 PM 31.0717 -101.9911 283° West 345 397 34,000 49 Climbing Albuquerque Center
Sat 08:12:22 PM 31.0914 -102.1008 282° West 345 397 34,000  Level Albuquerque Center
Sat 08:13:24 PM 31.1111 -102.2053 282° West 337 388 34,000  Level Albuquerque Center
Sat 08:14:25 PM 31.1361 -102.3306 283° West 332 382 34,000 -49 Level Albuquerque Center
Sat 08:15:27 PM 31.1553 -102.4372 282° West 334 384 33,900  Descending Albuquerque Center
Sat 08:16:28 PM 31.1753 -102.5422 283° West 322 371 34,000 49 Climbing Albuquerque Center
Sat 08:17:30 PM 31.1936 -102.6408 282° West 313 360 34,000  Level Albuquerque Center
Sat 08:18:31 PM 31.2122 -102.7422 282° West 316 364 34,000  Level Albuquerque Center
Sat 08:19:32 PM 31.2308 -102.8433 282° West 319 367 34,000  Level Albuquerque Center
Sat 08:20:34 PM 31.2497 -102.9444 282° West 319 367 34,000  Level Albuquerque Center
Sat 08:21:35 PM 31.2681 -103.0447 282° West 317 365 34,000 -49 Level Albuquerque Center
Sat 08:22:37 PM 31.2858 -103.1467 282° West 319 367 33,900  Descending Albuquerque Center
Sat 08:23:38 PM 31.3050 -103.2486 282° West 321 369 34,000 49 Climbing Albuquerque Center
Sat 08:24:39 PM 31.3264 -103.3708 282° West 320 368 34,000  Level Albuquerque Center
Sat 08:25:41 PM 31.3453 -103.4742 282° West 324 373 34,000  Level Albuquerque Center
Sat 08:26:42 PM 31.3628 -103.5769 281° West 324 373 34,000  Level Albuquerque Center
Sat 08:27:44 PM 31.3806 -103.6806 281° West 325 374 34,000  Level Albuquerque Center
Sat 08:28:45 PM 31.3981 -103.7750 282° West 326 375 34,000  Level Albuquerque Center
Sat 08:29:46 PM 31.4156 -103.8794 281° West 328 377 34,000 -49 Level Albuquerque Center
Sat 08:30:48 PM 31.4389 -104.0047 282° West 330 380 33,900  Descending Albuquerque Center
Sat 08:31:49 PM 31.4569 -104.1114 281° West 334 384 34,000 49 Climbing Albuquerque Center
Sat 08:32:50 PM 31.4750 -104.2169 281° West 334 384 34,000  Level Albuquerque Center
Sat 08:33:52 PM 31.4950 -104.3247 282° West 339 390 34,000  Level Albuquerque Center
Sat 08:34:53 PM 31.5133 -104.4325 281° West 339 390 34,000  Level Albuquerque Center
Sat 08:35:54 PM 31.5317 -104.5403 281° West 339 390 34,000  Level Albuquerque Center
Sat 08:36:56 PM 31.5500 -104.6475 281° West 339 390 34,000  Level Albuquerque Center
Sat 08:37:57 PM 31.5689 -104.7572 281° West 343 395 34,000 -49 Level Albuquerque Center
Sat 08:38:58 PM 31.5911 -104.8867 281° West 341 392 33,900 -49 Descending Albuquerque Center
Sat 08:40:00 PM 31.6092 -104.9964 281° West 344 396 33,900 49 Level Albuquerque Center
Sat 08:41:01 PM 31.6272 -105.1033 281° West 339 390 34,000 49 Climbing Albuquerque Center
Sat 08:42:02 PM 31.6444 -105.2117 281° West 340 391 34,000  Level Albuquerque Center
Sat 08:43:03 PM 31.6636 -105.3192 282° West 339 390 34,000  Level Albuquerque Center
Sat 08:44:05 PM 31.6800 -105.4328 280° West 349 402 34,000  Level Albuquerque Center
Sat 08:45:06 PM 31.6975 -105.5419 281° West 343 395 34,000  Level Albuquerque Center
Sat 08:46:07 PM 31.7156 -105.6503 281° West 339 390 34,000  Level Albuquerque Center
Sat 08:47:09 PM 31.7364 -105.7819 281° West 343 395 34,000  Level Albuquerque Center
Sat 08:48:10 PM 31.7533 -105.8911 280° West 342 394 34,000  Level Albuquerque Center
Sat 08:49:11 PM 31.7714 -106.0006 281° West 343 395 34,000  Level Albuquerque Center
Sat 08:50:12 PM 31.7900 -106.1106 281° West 344 396 34,000  Level Albuquerque Center
Sat 08:51:14 PM 31.8094 -106.2236 281° West 352 405 34,000  Level Albuquerque Center
Sat 08:52:15 PM 31.8289 -106.3369 281° West 354 407 34,000  Level Albuquerque Center
Sat 08:53:16 PM 31.8461 -106.4547 280° West 359 413 34,000 -49 Level Albuquerque Center
Sat 08:54:17 PM 31.8664 -106.5711 282° West 361 415 33,900 -49 Descending Albuquerque Center
Sat 08:55:19 PM 31.8847 -106.6847 281° West 355 409 33,900 49 Level Albuquerque Center
Sat 08:56:20 PM 31.9039 -106.7989 281° West 355 409 34,000  Climbing Albuquerque Center
Sat 08:57:21 PM 31.9261 -106.9378 281° West 360 414 33,900  Descending Albuquerque Center
Sat 08:58:22 PM 31.9439 -107.0525 280° West 357 411 34,000  Climbing Albuquerque Center
Sat 08:59:23 PM 31.9611 -107.1706 280° West 362 417 33,900  Descending Albuquerque Center
Sat 09:00:25 PM 31.9797 -107.2861 281° West 360 414 34,000 49 Climbing Albuquerque Center
Sat 09:01:26 PM 31.9975 -107.4028 280° West 360 414 34,000  Level Albuquerque Center
Sat 09:02:27 PM 32.0153 -107.5192 280° West 360 414 34,000  Level Albuquerque Center
Sat 09:03:28 PM 32.0331 -107.6372 280° West 363 418 34,000  Level Albuquerque Center
Sat 09:04:29 PM 32.0506 -107.7561 280° West 365 420 34,000  Level Albuquerque Center
Sat 09:05:31 PM 32.0678 -107.8753 280° West 367 422 34,000  Level Albuquerque Center
Sat 09:06:32 PM 32.0861 -107.9944 280° West 368 423 34,000 -49 Level Albuquerque Center
Sat 09:07:33 PM 32.1036 -108.1117 280° West 365 420 33,900  Descending Albuquerque Center
Sat 09:08:34 PM 32.1211 -108.2308 280° West 366 421 34,000 49 Climbing Albuquerque Center
Sat 09:09:35 PM 32.1372 -108.3461 279° West 364 419 34,000  Level Albuquerque Center
Sat 09:10:36 PM 32.1575 -108.4797 280° West 355 409 34,000  Level Albuquerque Center
Sat 09:11:37 PM 32.1733 -108.5922 279° West 351 404 34,000  Level Albuquerque Center
Sat 09:12:38 PM 32.1903 -108.7081 280° West 357 411 34,000  Level Albuquerque Center
Sat 09:13:39 PM 32.2067 -108.8217 280° West 356 410 34,000  Level Albuquerque Center
Sat 09:14:41 PM 32.2231 -108.9367 280° West 357 411 34,000  Level Albuquerque Center
Sat 09:15:42 PM 32.2389 -109.0492 279° West 354 407 34,000  Level Albuquerque Center
Sat 09:16:43 PM 32.2539 -109.1644 279° West 356 410 34,000  Level Albuquerque Center
Sat 09:17:44 PM 32.2714 -109.2800 280° West 358 412 34,000  Level Albuquerque Center
Sat 09:18:45 PM 32.2994 -109.3931 286° West 362 417 34,000  Level Albuquerque Center
Sat 09:19:46 PM 32.3319 -109.5244 286° West 354 407 34,000  Level Albuquerque Center
Sat 09:20:47 PM 32.3586 -109.6347 286° West 352 405 34,000  Level Albuquerque Center
Sat 09:21:48 PM 32.3850 -109.7456 286° West 352 405 34,000  Level Albuquerque Center
Sat 09:22:49 PM 32.4114 -109.8553 286° West 351 404 34,000  Level Albuquerque Center
Sat 09:23:50 PM 32.4414 -109.9689 287° West 359 413 34,000  Level Albuquerque Center
Sat 09:24:51 PM 32.4661 -110.0806 285° West 355 409 34,000 -984 Level Albuquerque Center
Sat 09:25:52 PM 32.4936 -110.1931 286° West 357 411 32,000 -2,262 Descending Albuquerque Center
Sat 09:26:53 PM 32.5211 -110.3075 286° West 361 415 29,400 -2,508 Descending Albuquerque Center
Sat 09:27:54 PM 32.5500 -110.4358 285° West 373 429 26,900 -2,361 Descending Albuquerque Center
Sat 09:28:55 PM 32.5778 -110.5528 286° West 371 427 24,600 -1,426 Descending Albuquerque Center
Sat 09:29:56 PM 32.6206 -110.6536 297° West 350 403 24,000 -295 Descending Albuquerque Center
Sat 09:30:57 PM 32.6742 -110.7478 304° West 345 397 24,000  Level Albuquerque Center
Sat 09:31:58 PM 32.7250 -110.8453 302° West 346 398 24,000 -344 Level Albuquerque Center
Sat 09:32:59 PM 32.7781 -110.9411 303° West 347 399 23,300 -1,574 Descending Albuquerque Center
Sat 09:34:00 PM 32.8372 -111.0553 302° West 341 392 20,800 -2,016 Descending Albuquerque Center
Sat 09:35:01 PM 32.8825 -111.1456 301° West 325 374 19,200 -1,770 Descending Albuquerque Center
Sat 09:36:02 PM 32.9250 -111.2342 300° West 311 358 17,200 -1,918 Descending Albuquerque Center
Sat 09:37:03 PM 32.9672 -111.3261 299° West 314 361 15,300 -1,574 Descending Albuquerque Center
Sat 09:38:04 PM 33.0083 -111.4150 299° West 309 356 14,000 -1,438 Descending Albuquerque Center
Sat 09:39:04 PM 33.0506 -111.4983 301° West 296 341 12,400 -1,587 Descending Albuquerque Center
Sat 09:40:05 PM 33.0975 -111.5719 307° West 283 326 10,800 -1,377 Descending Albuquerque Center
Sat 09:41:06 PM 33.1625 -111.6069 336° Northwest 254 292 9,600 -885 Descending Albuquerque Center
Sat 09:42:07 PM 33.2206 -111.6394 335° Northwest 234 269 9,000 -836 Descending Albuquerque Center
Sat 09:43:08 PM 33.2786 -111.6731 334° Northwest 233 268 7,900 -1,082 Descending Albuquerque Center
Sat 09:44:09 PM 33.3369 -111.7081 333° Northwest 234 269 6,800 -934 Descending Albuquerque Center
Sat 09:45:10 PM 33.3886 -111.7431 331° Northwest 212 244 6,000 -1,033 Descending Albuquerque Center
Sat 09:46:11 PM 33.4192 -111.7994 303° West 202 232 4,700 -1,328 Descending Albuquerque Center
Sat 09:47:12 PM 33.4289 -111.8603 281° West 190 219 3,300 -1,033 Descending Albuquerque Center
Sat 09:48:13 PM 33.4289 -111.9114 270° West 159 183 2,600 -787 Descending Albuquerque Center
Sat 09:49:14 PM 33.4292 -111.9675 270° West 143 165 1,700 -694 Descending Albuquerque Center
Sat 09:50:14 PM 33.4281 -112.0161 268° West 143 165 1,200 -500 Descending Albuquerque Center

Login

Don't have an account? Register now (free) for customized features, flight alerts, and more!